createdAt,value
2022-11-29T00:01:41.157Z,102397.30
2022-11-29T00:04:09.540Z,102405.07
2022-11-29T00:06:38.263Z,102405.70
2022-11-29T00:09:11.712Z,102399.96
2022-11-29T00:11:59.944Z,102400.75
2022-11-29T00:14:29.572Z,102400.66
2022-11-29T00:17:02.449Z,102399.66
2022-11-29T00:19:32.775Z,102387.92
2022-11-29T00:22:01.665Z,102399.21
2022-11-29T00:24:32.521Z,102397.82
2022-11-29T00:27:01.955Z,102400.48
2022-11-29T00:29:30.587Z,102398.06
2022-11-29T00:31:59.648Z,102387.03
2022-11-29T00:34:28.546Z,102399.42
2022-11-29T00:36:56.809Z,102404.40
2022-11-29T00:39:25.108Z,102401.61
2022-11-29T00:41:53.390Z,102398.53
2022-11-29T00:44:21.855Z,102404.15
2022-11-29T00:46:50.432Z,102401.36
2022-11-29T00:49:18.647Z,102404.14
2022-11-29T00:51:47.494Z,102399.92
2022-11-29T00:54:15.936Z,102401.11
2022-11-29T00:56:44.354Z,102400.56
2022-11-29T00:59:12.608Z,102400.44
2022-11-29T01:01:41.046Z,102399.80
2022-11-29T01:04:09.351Z,102397.41
2022-11-29T01:06:37.631Z,102386.23
2022-11-29T01:09:06.178Z,102400.89
2022-11-29T01:11:35.005Z,102399.63
2022-11-29T01:14:04.597Z,102397.58
2022-11-29T01:16:33.379Z,102401.75
2022-11-29T01:19:01.682Z,102398.02
2022-11-29T01:21:30.555Z,102398.96
2022-11-29T01:24:00.142Z,102399.21
2022-11-29T01:26:30.253Z,102385.83
2022-11-29T01:28:59.481Z,102389.39
2022-11-29T01:31:33.438Z,102391.60
2022-11-29T01:34:03.600Z,102394.49
2022-11-29T01:36:32.036Z,102390.58
2022-11-29T01:39:01.002Z,102390.37
2022-11-29T01:41:32.489Z,102391.15
2022-11-29T01:44:26.578Z,102387.03
2022-11-29T01:46:55.929Z,102385.67
2022-11-29T01:49:28.309Z,102388.42
2022-11-29T01:52:04.827Z,102389.90
2022-11-29T01:54:37.538Z,102390.17
2022-11-29T01:57:07.661Z,102390.91
2022-11-29T01:59:41.289Z,102385.91
2022-11-29T02:02:15.256Z,102389.98
2022-11-29T02:04:46.199Z,102387.11
2022-11-29T02:07:14.587Z,102392.61
2022-11-29T02:09:43.038Z,102393.16
2022-11-29T02:12:30.518Z,102391.59
2022-11-29T02:15:26.539Z,102387.29
2022-11-29T02:18:12.273Z,102390.11
2022-11-29T02:21:11.312Z,102391.77
2022-11-29T02:23:58.048Z,102389.14
2022-11-29T02:27:02.993Z,102389.93
2022-11-29T02:30:08.846Z,102391.64
2022-11-29T02:32:59.067Z,102397.05
2022-11-29T02:35:50.894Z,102401.13
2022-11-29T02:38:22.010Z,102399.77
2022-11-29T02:40:56.193Z,102397.60
2022-11-29T02:43:31.813Z,102398.55
2022-11-29T02:46:18.010Z,102402.58
2022-11-29T02:49:07.717Z,102405.22
2022-11-29T02:52:03.158Z,102404.40
2022-11-29T02:54:58.522Z,102393.83
2022-11-29T02:57:38.597Z,102410.56
2022-11-29T03:00:20.513Z,102414.15
2022-11-29T03:02:51.863Z,102416.10
2022-11-29T03:05:32.420Z,102415.73
2022-11-29T03:08:15.626Z,102415.45
2022-11-29T03:11:08.347Z,102411.81
2022-11-29T03:13:59.780Z,102415.07
2022-11-29T03:16:50.447Z,102412.73
2022-11-29T03:20:00.062Z,102417.41
2022-11-29T03:22:52.743Z,102421.89
2022-11-29T03:25:21.047Z,102415.20
2022-11-29T03:28:13.077Z,102417.25
2022-11-29T03:30:48.698Z,102419.89
2022-11-29T03:33:22.060Z,102423.65
2022-11-29T03:35:59.475Z,102430.61
2022-11-29T03:38:47.990Z,102426.16
2022-11-29T03:41:34.687Z,102429.16
2022-11-29T03:44:11.521Z,102428.95
2022-11-29T03:46:56.817Z,102426.73
2022-11-29T03:49:43.207Z,102427.80
2022-11-29T03:52:44.463Z,102427.13
2022-11-29T03:55:25.719Z,102423.89
2022-11-29T03:58:11.804Z,102424.85
2022-11-29T04:00:49.020Z,102426.31
2022-11-29T04:03:46.172Z,102427.90
2022-11-29T04:06:42.220Z,102435.44
2022-11-29T04:09:28.667Z,102437.29
2022-11-29T04:12:23.871Z,102440.64
2022-11-29T04:15:10.459Z,102443.83
2022-11-29T04:18:14.695Z,102447.77
2022-11-29T04:21:01.566Z,102451.59
2022-11-29T04:23:57.515Z,102450.41
2022-11-29T04:26:53.248Z,102452.82
2022-11-29T04:29:39.611Z,102455.02
2022-11-29T04:32:26.027Z,102458.75
2022-11-29T04:35:18.520Z,102461.20
2022-11-29T04:37:52.531Z,102460.05
2022-11-29T04:40:38.403Z,102456.86
2022-11-29T04:43:28.371Z,102463.45
2022-11-29T04:46:33.910Z,102464.99
2022-11-29T04:49:17.219Z,102464.81
2022-11-29T04:52:25.248Z,102446.84
2022-11-29T04:54:56.356Z,102453.90
2022-11-29T04:57:53.169Z,102470.27
2022-11-29T05:00:24.840Z,102474.17
2022-11-29T05:03:00.238Z,102470.20
2022-11-29T05:05:51.384Z,102476.53
2022-11-29T05:08:38.289Z,102483.70
2022-11-29T05:11:35.192Z,102472.95
2022-11-29T05:14:22.172Z,102485.84
2022-11-29T05:17:20.780Z,102488.98
2022-11-29T05:20:07.260Z,102487.81
2022-11-29T05:22:51.791Z,102497.02
2022-11-29T05:25:52.401Z,102490.60
2022-11-29T05:28:56.872Z,102492.69
2022-11-29T05:31:46.324Z,102495.96
2022-11-29T05:34:56.388Z,102497.08
2022-11-29T05:37:42.080Z,102494.80
2022-11-29T05:40:22.408Z,102493.77
2022-11-29T05:42:56.205Z,102497.42
2022-11-29T05:45:41.459Z,102497.73
2022-11-29T05:48:33.936Z,102488.44
2022-11-29T05:51:27.504Z,102499.90
2022-11-29T05:54:05.531Z,102506.27
2022-11-29T05:56:42.547Z,102509.36
2022-11-29T05:59:18.883Z,102511.73
2022-11-29T06:02:21.190Z,102509.04
2022-11-29T06:04:56.071Z,102485.10
2022-11-29T06:07:39.528Z,102515.60
2022-11-29T06:10:17.867Z,102518.30
2022-11-29T06:12:56.016Z,102517.63
2022-11-29T06:15:52.298Z,102517.27
2022-11-29T06:18:26.787Z,102516.83
2022-11-29T06:21:05.154Z,102514.97
2022-11-29T06:23:42.330Z,102512.35
2022-11-29T06:26:30.420Z,102517.36
2022-11-29T06:29:19.765Z,102522.03
2022-11-29T06:31:54.432Z,102521.55
2022-11-29T06:34:27.557Z,102524.13
2022-11-29T06:37:38.508Z,102523.70
2022-11-29T06:40:11.110Z,102514.30
2022-11-29T06:42:39.263Z,102525.61
2022-11-29T06:45:10.640Z,102524.94
2022-11-29T06:47:49.517Z,102514.95
2022-11-29T06:50:26.700Z,102494.63
2022-11-29T06:53:07.393Z,102524.91
2022-11-29T06:55:44.801Z,102523.15
2022-11-29T06:58:22.834Z,102514.61
2022-11-29T07:01:11.360Z,102529.48
2022-11-29T07:03:55.843Z,102532.84
2022-11-29T07:06:28.948Z,102532.23
2022-11-29T07:09:01.438Z,102532.93
2022-11-29T07:11:30.080Z,102536.15
2022-11-29T07:13:58.595Z,102534.29
2022-11-29T07:17:04.464Z,102538.48
2022-11-29T07:19:50.950Z,102543.48
2022-11-29T07:22:34.334Z,102540.95
2022-11-29T07:25:32.859Z,102542.40
2022-11-29T07:28:36.403Z,102542.36
2022-11-29T07:31:46.298Z,102534.20
2022-11-29T07:34:42.963Z,102547.91
2022-11-29T07:37:29.925Z,102554.84
2022-11-29T07:40:15.595Z,102558.31
2022-11-29T07:43:04.246Z,102546.23
2022-11-29T07:45:36.342Z,102552.75
2022-11-29T07:48:05.167Z,102566.40
2022-11-29T07:50:35.544Z,102566.34
2022-11-29T07:53:03.989Z,102567.86
2022-11-29T07:55:35.013Z,102568.25
2022-11-29T07:58:03.342Z,102564.41
2022-11-29T08:00:31.715Z,102562.81
2022-11-29T08:02:59.983Z,102547.48
2022-11-29T08:05:28.186Z,102564.89
2022-11-29T08:07:56.883Z,102561.08
2022-11-29T08:10:25.680Z,102555.78
2022-11-29T08:12:54.524Z,102555.36
2022-11-29T08:15:24.146Z,102555.55
2022-11-29T08:17:53.383Z,102553.88
2022-11-29T08:20:21.786Z,102552.04
2022-11-29T08:22:58.523Z,102550.58
2022-11-29T08:25:28.061Z,102552.96
2022-11-29T08:27:57.011Z,102554.59
2022-11-29T08:30:25.207Z,102554.77
2022-11-29T08:32:53.448Z,102557.63
2022-11-29T08:35:23.275Z,102554.02
2022-11-29T08:37:51.764Z,102556.09
2022-11-29T08:40:20.427Z,102550.09
2022-11-29T08:42:48.779Z,102553.84
2022-11-29T08:45:17.908Z,102552.06
2022-11-29T08:47:46.299Z,102538.33
2022-11-29T08:50:17.437Z,102551.52
2022-11-29T08:53:07.500Z,102549.44
2022-11-29T08:55:43.233Z,102547.73
2022-11-29T08:58:13.922Z,102545.89
2022-11-29T09:00:45.700Z,102544.19
2022-11-29T09:03:32.759Z,102541.73
2022-11-29T09:06:12.172Z,102540.52
2022-11-29T09:08:45.535Z,102536.98
2022-11-29T09:11:19.996Z,102538.46
2022-11-29T09:13:50.726Z,102535.14
2022-11-29T09:16:21.353Z,102536.55
2022-11-29T09:18:51.791Z,102538.00
2022-11-29T09:21:20.751Z,102510.41
2022-11-29T09:23:49.029Z,102540.23
2022-11-29T09:26:20.451Z,102534.75
2022-11-29T09:28:49.407Z,102539.84
2022-11-29T09:31:17.832Z,102536.94
2022-11-29T09:33:47.541Z,102534.89
2022-11-29T09:36:16.228Z,102541.45
2022-11-29T09:38:44.419Z,102538.64
2022-11-29T09:41:31.360Z,102526.59
2022-11-29T09:44:07.243Z,102542.23
2022-11-29T09:47:03.612Z,102542.35
2022-11-29T09:49:34.608Z,102535.36
2022-11-29T09:52:14.713Z,102535.31
2022-11-29T09:54:54.856Z,102538.63
2022-11-29T09:57:25.161Z,102532.94
2022-11-29T09:59:57.827Z,102537.02
2022-11-29T10:02:38.268Z,102519.50
2022-11-29T10:05:19.359Z,102533.64
2022-11-29T10:08:20.982Z,102534.27
2022-11-29T10:10:54.823Z,102535.62
2022-11-29T10:13:29.835Z,102509.88
2022-11-29T10:16:06.530Z,102541.45
2022-11-29T10:18:36.502Z,102530.52
2022-11-29T10:21:17.641Z,102543.84
2022-11-29T10:23:53.597Z,102544.54
2022-11-29T10:26:23.180Z,102542.21
2022-11-29T10:28:51.810Z,102539.77
2022-11-29T10:31:35.353Z,102539.70
2022-11-29T10:34:16.099Z,102542.76
2022-11-29T10:36:49.143Z,102542.29
2022-11-29T10:39:26.773Z,102543.45
2022-11-29T10:42:01.753Z,102543.96
2022-11-29T10:44:33.113Z,102542.25
2022-11-29T10:47:10.535Z,102546.63
2022-11-29T10:49:40.464Z,102550.92
2022-11-29T10:52:19.910Z,102549.77
2022-11-29T10:54:50.065Z,102548.58
2022-11-29T10:57:21.107Z,102549.15
2022-11-29T11:00:04.588Z,102550.93
2022-11-29T11:02:33.755Z,102552.19
2022-11-29T11:05:04.081Z,102556.98
2022-11-29T11:07:35.809Z,102557.91
2022-11-29T11:10:17.594Z,102559.27
2022-11-29T11:13:01.574Z,102561.95
2022-11-29T11:15:32.250Z,102562.44
2022-11-29T11:18:06.457Z,102565.13
2022-11-29T11:20:41.428Z,102562.48
2022-11-29T11:23:31.750Z,102569.11
2022-11-29T11:26:08.715Z,102570.54
2022-11-29T11:28:49.011Z,102563.90
2022-11-29T11:31:31.966Z,102562.77
2022-11-29T11:34:31.861Z,102562.55
2022-11-29T11:37:22.342Z,102564.45
2022-11-29T11:39:53.292Z,102561.71
2022-11-29T11:42:39.679Z,102534.31
2022-11-29T11:45:10.528Z,102564.48
2022-11-29T11:47:52.175Z,102560.30
2022-11-29T11:50:28.666Z,102559.16
2022-11-29T11:53:31.741Z,102567.52
2022-11-29T11:56:02.998Z,102567.16
2022-11-29T11:58:38.337Z,102567.16
2022-11-29T12:01:12.549Z,102569.27
2022-11-29T12:03:57.304Z,102573.00
2022-11-29T12:06:43.605Z,102581.36
2022-11-29T12:09:19.543Z,102579.64
2022-11-29T12:12:11.073Z,102583.68
2022-11-29T12:15:02.504Z,102571.84
2022-11-29T12:17:42.491Z,102584.10
2022-11-29T12:20:13.427Z,102584.73
2022-11-29T12:22:58.459Z,102583.91
2022-11-29T12:25:43.569Z,102582.73
2022-11-29T12:28:19.810Z,102588.20
2022-11-29T12:30:57.792Z,102590.63
2022-11-29T12:34:04.479Z,102589.43
2022-11-29T12:36:47.447Z,102592.03
2022-11-29T12:39:49.838Z,102593.29
2022-11-29T12:42:36.390Z,102593.86
2022-11-29T12:45:28.879Z,102597.70
2022-11-29T12:48:00.818Z,102601.65
2022-11-29T12:51:11.976Z,102597.52
2022-11-29T12:54:04.771Z,102600.45
2022-11-29T12:56:49.382Z,102601.10
2022-11-29T12:59:49.552Z,102606.88
2022-11-29T13:02:34.794Z,102604.57
2022-11-29T13:05:25.086Z,102589.29
2022-11-29T13:08:11.092Z,102606.25
2022-11-29T13:11:03.924Z,102605.48
2022-11-29T13:13:44.796Z,102603.52
2022-11-29T13:16:18.942Z,102612.05
2022-11-29T13:19:11.385Z,102610.50
2022-11-29T13:21:52.328Z,102611.63
2022-11-29T13:24:45.386Z,102619.08
2022-11-29T13:27:19.199Z,102619.98
2022-11-29T13:29:49.030Z,102619.83
2022-11-29T13:32:49.284Z,102627.30
2022-11-29T13:35:23.793Z,102627.52
2022-11-29T13:37:57.995Z,102626.80
2022-11-29T13:40:38.055Z,102629.21
2022-11-29T13:43:30.317Z,102628.08
2022-11-29T13:46:30.529Z,102626.52
2022-11-29T13:48:58.867Z,102627.98
2022-11-29T13:51:29.454Z,102611.55
2022-11-29T13:54:01.657Z,102630.96
2022-11-29T13:56:37.030Z,102623.77
2022-11-29T13:59:08.662Z,102633.12
2022-11-29T14:01:45.760Z,102633.88
2022-11-29T14:04:28.898Z,102634.70
2022-11-29T14:07:19.711Z,102637.32
2022-11-29T14:09:56.816Z,102633.36
2022-11-29T14:12:35.920Z,102641.14
2022-11-29T14:15:28.389Z,102641.96
2022-11-29T14:18:03.028Z,102648.05
2022-11-29T14:20:32.537Z,102649.98
2022-11-29T14:23:09.348Z,102648.27
2022-11-29T14:25:56.839Z,102651.30
2022-11-29T14:28:25.400Z,102634.34
2022-11-29T14:30:58.753Z,102652.49
2022-11-29T14:33:48.621Z,102651.07
2022-11-29T14:36:46.409Z,102628.06
2022-11-29T14:39:14.784Z,102651.41
2022-11-29T14:42:00.897Z,102654.58
2022-11-29T14:44:34.304Z,102655.79
2022-11-29T14:47:07.024Z,102656.53
2022-11-29T14:49:44.048Z,102656.08
2022-11-29T14:52:14.987Z,102646.48
2022-11-29T14:54:56.899Z,102659.66
2022-11-29T14:57:47.136Z,102662.45
2022-11-29T15:00:19.766Z,102660.25
2022-11-29T15:02:53.571Z,102657.05
2022-11-29T15:05:41.708Z,102661.52
2022-11-29T15:08:17.572Z,102664.36
2022-11-29T15:10:53.337Z,102664.61
2022-11-29T15:13:32.007Z,102667.17
2022-11-29T15:16:08.689Z,102664.66
2022-11-29T15:18:49.834Z,102665.73
2022-11-29T15:21:51.504Z,102667.16
2022-11-29T15:24:22.564Z,102635.48
2022-11-29T15:27:04.442Z,102663.23
2022-11-29T15:29:32.602Z,102663.58
2022-11-29T15:32:05.794Z,102648.85
2022-11-29T15:34:40.116Z,102666.52
2022-11-29T15:37:22.329Z,102668.89
2022-11-29T15:40:03.102Z,102669.23
2022-11-29T15:43:13.528Z,102667.88
2022-11-29T15:45:50.512Z,102671.94
2022-11-29T15:48:25.830Z,102663.00
2022-11-29T15:50:56.789Z,102674.83
2022-11-29T15:53:32.336Z,102674.73
2022-11-29T15:56:03.552Z,102675.64
2022-11-29T15:58:34.113Z,102677.79
2022-11-29T16:01:03.299Z,102678.92
2022-11-29T16:03:35.612Z,102679.53
2022-11-29T16:06:21.195Z,102677.60
2022-11-29T16:08:50.184Z,102679.29
2022-11-29T16:11:21.994Z,102677.50
2022-11-29T16:14:13.555Z,102685.11
2022-11-29T16:16:45.382Z,102685.42
2022-11-29T16:19:33.797Z,102689.29
2022-11-29T16:22:11.209Z,102686.70
2022-11-29T16:25:01.218Z,102693.21
2022-11-29T16:27:33.213Z,102688.89
2022-11-29T16:30:02.528Z,102676.77
2022-11-29T16:32:42.564Z,102691.38
2022-11-29T16:35:21.544Z,102692.66
2022-11-29T16:37:50.447Z,102696.67
2022-11-29T16:40:30.455Z,102699.06
2022-11-29T16:43:04.803Z,102699.25
2022-11-29T16:45:43.381Z,102708.11
2022-11-29T16:48:28.350Z,102712.76
2022-11-29T16:51:17.163Z,102715.41
2022-11-29T16:53:48.012Z,102716.38
2022-11-29T16:56:17.788Z,102687.54
2022-11-29T16:59:20.579Z,102716.48
2022-11-29T17:01:43.444Z,102718.79
2022-11-29T17:04:11.655Z,102718.08
2022-11-29T17:06:56.718Z,102724.58
2022-11-29T17:09:28.876Z,102710.43
2022-11-29T17:12:01.196Z,102727.35
2022-11-29T17:14:30.367Z,102730.11
2022-11-29T17:17:02.617Z,102718.98
2022-11-29T17:19:31.194Z,102733.05
2022-11-29T17:21:59.639Z,102739.36
2022-11-29T17:24:27.976Z,102744.15
2022-11-29T17:26:56.506Z,102748.77
2022-11-29T17:29:24.726Z,102752.20
2022-11-29T17:31:53.663Z,102750.69
2022-11-29T17:34:21.947Z,102755.03
2022-11-29T17:36:51.015Z,102752.34
2022-11-29T17:39:20.394Z,102735.71
2022-11-29T17:41:49.045Z,102731.52
2022-11-29T17:44:17.191Z,102747.29
2022-11-29T17:46:45.474Z,102745.35
2022-11-29T17:49:13.706Z,102745.19
2022-11-29T17:51:57.456Z,102747.17
2022-11-29T17:54:26.366Z,102747.92
2022-11-29T17:56:55.392Z,102749.99
2022-11-29T17:59:23.526Z,102752.95
2022-11-29T18:01:52.301Z,102751.52
2022-11-29T18:04:20.995Z,102755.58
2022-11-29T18:06:52.524Z,102754.94
2022-11-29T18:09:20.912Z,102731.45
2022-11-29T18:11:50.331Z,102758.16
2022-11-29T18:14:23.051Z,102754.58
2022-11-29T18:16:52.191Z,102759.98
2022-11-29T18:19:23.593Z,102756.88
2022-11-29T18:21:52.491Z,102760.29
2022-11-29T18:24:20.934Z,102759.27
2022-11-29T18:26:49.352Z,102744.76
2022-11-29T18:29:17.736Z,102761.52
2022-11-29T18:31:46.676Z,102744.68
2022-11-29T18:34:15.571Z,102760.34
2022-11-29T18:36:46.571Z,102762.88
2022-11-29T18:39:20.329Z,102760.17
2022-11-29T18:41:50.075Z,102745.10
2022-11-29T18:44:21.810Z,102761.30
2022-11-29T18:46:50.394Z,102763.13
2022-11-29T18:49:19.100Z,102766.36
2022-11-29T18:51:49.747Z,102766.59
2022-11-29T18:54:18.888Z,102766.64
2022-11-29T18:56:50.396Z,102766.88
2022-11-29T18:59:18.891Z,102768.06
2022-11-29T19:01:48.676Z,102771.91
2022-11-29T19:04:20.139Z,102769.27
2022-11-29T19:06:49.390Z,102775.98
2022-11-29T19:09:24.022Z,102781.77
2022-11-29T19:11:52.776Z,102779.70
2022-11-29T19:14:21.490Z,102778.20
2022-11-29T19:16:50.431Z,102776.18
2022-11-29T19:19:21.521Z,102783.70
2022-11-29T19:21:49.817Z,102781.96
2022-11-29T19:24:18.655Z,102781.48
2022-11-29T19:26:49.806Z,102783.26
2022-11-29T19:29:18.183Z,102786.55
2022-11-29T19:31:46.846Z,102782.30
2022-11-29T19:34:15.292Z,102780.56
2022-11-29T19:36:44.819Z,102782.21
2022-11-29T19:39:15.786Z,102784.42
2022-11-29T19:41:46.921Z,102788.52
2022-11-29T19:44:15.464Z,102789.67
2022-11-29T19:46:47.192Z,102792.11
2022-11-29T19:49:15.783Z,102790.68
2022-11-29T19:51:44.272Z,102786.98
2022-11-29T19:54:12.672Z,102774.85
2022-11-29T19:56:41.343Z,102784.09
2022-11-29T19:59:10.037Z,102789.80
2022-11-29T20:01:41.840Z,102789.60
2022-11-29T20:04:13.948Z,102791.95
2022-11-29T20:06:43.218Z,102787.72
2022-11-29T20:09:13.685Z,102788.75
2022-11-29T20:11:42.189Z,102786.43
2022-11-29T20:14:12.180Z,102786.20
2022-11-29T20:16:40.719Z,102785.95
2022-11-29T20:19:11.670Z,102786.54
2022-11-29T20:21:44.032Z,102784.52
2022-11-29T20:24:14.608Z,102782.81
2022-11-29T20:26:45.852Z,102787.48
2022-11-29T20:29:14.804Z,102784.15
2022-11-29T20:31:50.271Z,102782.97
2022-11-29T20:34:20.909Z,102788.38
2022-11-29T20:37:12.248Z,102791.91
2022-11-29T20:39:40.700Z,102796.55
2022-11-29T20:42:27.537Z,102795.60
2022-11-29T20:44:57.888Z,102794.09
2022-11-29T20:47:27.933Z,102792.70
2022-11-29T20:49:57.377Z,102797.15
2022-11-29T20:52:45.470Z,102800.56
2022-11-29T20:55:13.856Z,102799.86
2022-11-29T20:57:42.241Z,102798.89
2022-11-29T21:00:12.370Z,102802.27
2022-11-29T21:02:40.949Z,102800.65
2022-11-29T21:05:09.735Z,102801.00
2022-11-29T21:07:38.201Z,102800.67
2022-11-29T21:10:07.280Z,102804.56
2022-11-29T21:12:35.947Z,102792.96
2022-11-29T21:15:05.057Z,102804.55
2022-11-29T21:17:34.114Z,102808.19
2022-11-29T21:20:03.150Z,102800.85
2022-11-29T21:22:53.172Z,102816.92
2022-11-29T21:25:27.634Z,102814.05
2022-11-29T21:27:57.161Z,102815.63
2022-11-29T21:30:25.881Z,102812.27
2022-11-29T21:32:54.719Z,102812.27
2022-11-29T21:35:24.054Z,102804.81
2022-11-29T21:37:57.013Z,102810.23
2022-11-29T21:40:25.710Z,102811.41
2022-11-29T21:42:54.049Z,102814.00
2022-11-29T21:45:22.408Z,102814.18
2022-11-29T21:47:50.830Z,102810.48
2022-11-29T21:50:19.257Z,102813.62
2022-11-29T21:52:52.095Z,102798.98
2022-11-29T21:55:20.845Z,102788.09
2022-11-29T21:57:49.747Z,102793.54
2022-11-29T22:00:19.363Z,102814.25
2022-11-29T22:02:48.032Z,102819.10
2022-11-29T22:05:16.555Z,102819.38
2022-11-29T22:07:45.271Z,102817.02
2022-11-29T22:10:13.825Z,102819.39
2022-11-29T22:12:51.254Z,102821.78
2022-11-29T22:15:24.807Z,102803.10
2022-11-29T22:17:53.786Z,102808.20
2022-11-29T22:20:22.610Z,102823.20
2022-11-29T22:22:55.730Z,102824.34
2022-11-29T22:25:26.850Z,102822.14
2022-11-29T22:27:55.231Z,102825.22
2022-11-29T22:30:23.548Z,102822.58
2022-11-29T22:32:51.938Z,102827.19
2022-11-29T22:35:20.358Z,102827.30
2022-11-29T22:37:48.767Z,102826.80
2022-11-29T22:40:17.226Z,102815.20
2022-11-29T22:42:45.583Z,102829.47
2022-11-29T22:45:13.993Z,102835.45
2022-11-29T22:47:42.414Z,102826.55
2022-11-29T22:50:11.081Z,102831.04
2022-11-29T22:52:39.427Z,102826.07
2022-11-29T22:55:08.485Z,102827.25
2022-11-29T22:57:37.159Z,102830.18
2022-11-29T23:00:06.367Z,102829.97
2022-11-29T23:02:34.818Z,102826.02
2022-11-29T23:05:03.407Z,102828.19
2022-11-29T23:07:31.744Z,102823.69
2022-11-29T23:10:00.115Z,102809.45
2022-11-29T23:12:28.608Z,102825.86
2022-11-29T23:14:57.295Z,102829.91
2022-11-29T23:17:26.043Z,102831.85
2022-11-29T23:19:54.715Z,102833.63
2022-11-29T23:22:23.251Z,102833.65
2022-11-29T23:24:51.714Z,102835.06
2022-11-29T23:27:20.428Z,102835.90
2022-11-29T23:29:49.296Z,102824.02
2022-11-29T23:32:17.827Z,102838.13
2022-11-29T23:34:46.204Z,102835.45
2022-11-29T23:37:14.699Z,102832.34
2022-11-29T23:39:43.126Z,102829.38
2022-11-29T23:42:11.331Z,102831.23
2022-11-29T23:44:40.054Z,102829.71
2022-11-29T23:47:08.368Z,102829.69
2022-11-29T23:49:39.923Z,102828.59
2022-11-29T23:52:08.338Z,102829.65
2022-11-29T23:54:36.448Z,102832.73
2022-11-29T23:57:04.626Z,102830.28
2022-11-29T23:59:32.930Z,102829.36
